DLH11X LFMN-EDDM
Flight info
| Callsign | DLH11X |
|---|---|
| Flight time | 0h 40m |
| Altitude | 38000 |
| Route | BASIP DCT ANAKI DCT TAGIP DCT GUNGO DCT IVKAL T102 NINUR T101 BETOS BETOS1A |
| Aircraft | A359/H-SDE2E3GHIJ3J4J5LM1ORWXY/LB1D1 |
Departure
| Time | 2026-05-04 17:49 |
|---|---|
| Airport | Nice-Côte d'Azur Airport (LFMN) |
Arrival
| Time | 2026-05-04 18:29 |
|---|---|
| Airport | Munich Airport (EDDM) |
| Time | Latitude | Longitude | Altitude | Speed | Heading |
|---|---|---|---|---|---|
| 2026-05-04 17:09 | 43.66410 | 7.21331 | 27 ft | 0 kts | 351° |
| 2026-05-04 17:36 | 43.66399 | 7.21334 | 27 ft | 4 kts | 351° |
| 2026-05-04 17:36 | 43.66375 | 7.21339 | 27 ft | 2 kts | 351° |
| 2026-05-04 17:37 | 43.66354 | 7.21351 | 25 ft | 4 kts | 297° |
| 2026-05-04 17:37 | 43.66348 | 7.21385 | 25 ft | 4 kts | 268° |
| 2026-05-04 17:37 | 43.66350 | 7.21413 | 25 ft | 0 kts | 261° |
| 2026-05-04 17:42 | 43.66343 | 7.21353 | 27 ft | 10 kts | 260° |
| 2026-05-04 17:42 | 43.66330 | 7.21252 | 27 ft | 9 kts | 259° |
| 2026-05-04 17:43 | 43.66318 | 7.21150 | 27 ft | 13 kts | 261° |
| 2026-05-04 17:43 | 43.66303 | 7.21040 | 27 ft | 10 kts | 247° |
| 2026-05-04 17:43 | 43.66240 | 7.21004 | 27 ft | 12 kts | 175° |
| 2026-05-04 17:43 | 43.66147 | 7.21028 | 27 ft | 15 kts | 169° |
| 2026-05-04 17:44 | 43.66040 | 7.21051 | 27 ft | 11 kts | 172° |
| 2026-05-04 17:44 | 43.65961 | 7.21087 | 27 ft | 8 kts | 152° |
| 2026-05-04 17:44 | 43.65901 | 7.21073 | 27 ft | 10 kts | 214° |
| 2026-05-04 17:44 | 43.65840 | 7.20990 | 27 ft | 14 kts | 225° |
| 2026-05-04 17:45 | 43.65761 | 7.20882 | 27 ft | 18 kts | 225° |
| 2026-05-04 17:45 | 43.65665 | 7.20748 | 27 ft | 22 kts | 225° |
| 2026-05-04 17:45 | 43.65548 | 7.20588 | 27 ft | 25 kts | 225° |
| 2026-05-04 17:45 | 43.65422 | 7.20413 | 27 ft | 19 kts | 225° |
| 2026-05-04 17:46 | 43.65351 | 7.20316 | 27 ft | 15 kts | 224° |
| 2026-05-04 17:46 | 43.65256 | 7.20322 | 27 ft | 16 kts | 135° |
| 2026-05-04 17:46 | 43.65172 | 7.20437 | 28 ft | 18 kts | 136° |
| 2026-05-04 17:46 | 43.65090 | 7.20489 | 28 ft | 5 kts | 204° |
| 2026-05-04 17:47 | 43.65056 | 7.20449 | 28 ft | 8 kts | 224° |
| 2026-05-04 17:47 | 43.65008 | 7.20384 | 28 ft | 12 kts | 224° |
| 2026-05-04 17:47 | 43.64942 | 7.20294 | 28 ft | 15 kts | 226° |
| 2026-05-04 17:47 | 43.64858 | 7.20176 | 27 ft | 19 kts | 225° |
| 2026-05-04 17:48 | 43.64774 | 7.20140 | 28 ft | 13 kts | 155° |
| 2026-05-04 17:48 | 43.64704 | 7.20228 | 29 ft | 13 kts | 125° |
| 2026-05-04 17:48 | 43.64712 | 7.20297 | 30 ft | 12 kts | 55° |
| 2026-05-04 17:48 | 43.64757 | 7.20365 | 30 ft | 0 kts | 44° |
| 2026-05-04 17:49 | 43.64798 | 7.20419 | 30 ft | 38 kts | 44° |
| 2026-05-04 17:49 | 43.65173 | 7.20936 | 28 ft | 114 kts | 45° |
| 2026-05-04 17:49 | 43.65882 | 7.21883 | 305 ft | 153 kts | 48° |
| 2026-05-04 17:49 | 43.66682 | 7.22815 | 1193 ft | 147 kts | 43° |
| 2026-05-04 17:50 | 43.67155 | 7.24036 | 1635 ft | 159 kts | 88° |
| 2026-05-04 17:50 | 43.66640 | 7.25516 | 1887 ft | 197 kts | 137° |
| 2026-05-04 17:50 | 43.65331 | 7.26324 | 2610 ft | 212 kts | 159° |
| 2026-05-04 17:50 | 43.63970 | 7.27106 | 3566 ft | 212 kts | 150° |
| 2026-05-04 17:51 | 43.62841 | 7.28385 | 4386 ft | 211 kts | 119° |
| 2026-05-04 17:51 | 43.62582 | 7.30325 | 5333 ft | 209 kts | 81° |
| 2026-05-04 17:51 | 43.62988 | 7.32239 | 6253 ft | 214 kts | 72° |
| 2026-05-04 17:51 | 43.63528 | 7.34190 | 7089 ft | 221 kts | 71° |
| 2026-05-04 17:52 | 43.64087 | 7.36200 | 7932 ft | 228 kts | 72° |
| 2026-05-04 17:52 | 43.65034 | 7.39701 | 9372 ft | 240 kts | 73° |
| 2026-05-04 17:52 | 43.67442 | 7.48836 | 12740 ft | 265 kts | 72° |
| 2026-05-04 17:52 | 43.70432 | 7.60089 | 14287 ft | 360 kts | 72° |
| 2026-05-04 17:53 | 43.74586 | 7.73215 | 17387 ft | 387 kts | 52° |
| 2026-05-04 17:53 | 43.81933 | 7.84705 | 20429 ft | 407 kts | 49° |
| 2026-05-04 17:53 | 43.89447 | 7.96878 | 23505 ft | 424 kts | 56° |
| 2026-05-04 17:53 | 43.95456 | 8.11187 | 25755 ft | 447 kts | 61° |
| 2026-05-04 17:54 | 44.01653 | 8.26648 | 27926 ft | 469 kts | 60° |
| 2026-05-04 17:54 | 44.08185 | 8.42791 | 30018 ft | 488 kts | 60° |
| 2026-05-04 17:54 | 44.14922 | 8.59545 | 31814 ft | 502 kts | 60° |
| 2026-05-04 17:54 | 44.22985 | 8.75518 | 33446 ft | 509 kts | 38° |
| 2026-05-04 17:55 | 44.34069 | 8.87892 | 35258 ft | 507 kts | 34° |
| 2026-05-04 17:55 | 44.45176 | 8.99999 | 36901 ft | 507 kts | 35° |
| 2026-05-04 17:55 | 44.56216 | 9.12199 | 38093 ft | 494 kts | 34° |
| 2026-05-04 17:55 | 44.66704 | 9.23848 | 38080 ft | 477 kts | 34° |
| 2026-05-04 17:56 | 44.87331 | 9.46902 | 38056 ft | 474 kts | 35° |
| 2026-05-04 17:56 | 45.07908 | 9.70123 | 38059 ft | 472 kts | 35° |
| 2026-05-04 17:57 | 45.28313 | 9.93369 | 38051 ft | 469 kts | 36° |
| 2026-05-04 17:57 | 45.48593 | 10.16693 | 38043 ft | 467 kts | 36° |
| 2026-05-04 17:58 | 45.68470 | 10.39771 | 37679 ft | 462 kts | 37° |
| 2026-05-04 17:58 | 45.78865 | 10.51912 | 35135 ft | 495 kts | 38° |
| 2026-05-04 17:58 | 45.89461 | 10.64373 | 32616 ft | 488 kts | 39° |
| 2026-05-04 17:59 | 46.00513 | 10.74508 | 32156 ft | 469 kts | 27° |
| 2026-05-04 17:59 | 46.12054 | 10.83372 | 32186 ft | 471 kts | 27° |
| 2026-05-04 18:00 | 46.47462 | 11.06020 | 32148 ft | 464 kts | 357° |
| 2026-05-04 18:00 | 46.65432 | 11.04782 | 32115 ft | 463 kts | 354° |
| 2026-05-04 18:01 | 46.71862 | 11.04292 | 32100 ft | 462 kts | 355° |
| 2026-05-04 18:01 | 46.75061 | 11.04057 | 31859 ft | 458 kts | 355° |
| 2026-05-04 18:01 | 46.78235 | 11.03827 | 31487 ft | 455 kts | 355° |
| 2026-05-04 18:02 | 46.84497 | 11.03093 | 30744 ft | 448 kts | 351° |
| 2026-05-04 18:02 | 46.87536 | 11.02477 | 30170 ft | 447 kts | 349° |
| 2026-05-04 18:02 | 46.90611 | 11.01801 | 29466 ft | 446 kts | 349° |
| 2026-05-04 18:02 | 46.93688 | 11.01228 | 28760 ft | 446 kts | 355° |
| 2026-05-04 18:03 | 46.96791 | 11.01299 | 28073 ft | 446 kts | 1° |
| 2026-05-04 18:03 | 46.99886 | 11.01595 | 27414 ft | 446 kts | 2° |
| 2026-05-04 18:03 | 47.02978 | 11.02014 | 26754 ft | 446 kts | 4° |
| 2026-05-04 18:03 | 47.06050 | 11.02496 | 26108 ft | 438 kts | 4° |
| 2026-05-04 18:04 | 47.09021 | 11.02987 | 25526 ft | 422 kts | 4° |
| 2026-05-04 18:04 | 47.11910 | 11.03463 | 24901 ft | 415 kts | 5° |
| 2026-05-04 18:04 | 47.17591 | 11.04364 | 23880 ft | 414 kts | 4° |
| 2026-05-04 18:05 | 47.20444 | 11.04804 | 23381 ft | 410 kts | 4° |
| 2026-05-04 18:05 | 47.23273 | 11.05262 | 22837 ft | 406 kts | 5° |
| 2026-05-04 18:05 | 47.26067 | 11.05720 | 22298 ft | 402 kts | 4° |
| 2026-05-04 18:05 | 47.28831 | 11.06142 | 21766 ft | 397 kts | 4° |
| 2026-05-04 18:06 | 47.34293 | 11.06945 | 20773 ft | 393 kts | 4° |
| 2026-05-04 18:06 | 47.37005 | 11.07342 | 20261 ft | 390 kts | 4° |
| 2026-05-04 18:06 | 47.39657 | 11.07739 | 19784 ft | 388 kts | 4° |
| 2026-05-04 18:07 | 47.42333 | 11.08146 | 19306 ft | 385 kts | 4° |
| 2026-05-04 18:07 | 47.44989 | 11.08553 | 18862 ft | 383 kts | 5° |
| 2026-05-04 18:07 | 47.47635 | 11.08965 | 18362 ft | 381 kts | 4° |
| 2026-05-04 18:07 | 47.50263 | 11.09371 | 17843 ft | 378 kts | 4° |
| 2026-05-04 18:08 | 47.52867 | 11.09774 | 17310 ft | 375 kts | 4° |
| 2026-05-04 18:08 | 47.55435 | 11.10326 | 16785 ft | 373 kts | 12° |
| 2026-05-04 18:08 | 47.57870 | 11.11610 | 16293 ft | 371 kts | 23° |
| 2026-05-04 18:08 | 47.60181 | 11.13288 | 15774 ft | 368 kts | 27° |
| 2026-05-04 18:09 | 47.64544 | 11.17002 | 15011 ft | 361 kts | 30° |
| 2026-05-04 18:09 | 47.68848 | 11.20856 | 14943 ft | 361 kts | 30° |
| 2026-05-04 18:10 | 47.71004 | 11.22771 | 14941 ft | 359 kts | 30° |
| 2026-05-04 18:10 | 47.73132 | 11.24532 | 14945 ft | 340 kts | 24° |
| 2026-05-04 18:10 | 47.75247 | 11.25910 | 14949 ft | 325 kts | 21° |
| 2026-05-04 18:10 | 47.77326 | 11.27158 | 14948 ft | 322 kts | 20° |
| 2026-05-04 18:11 | 47.79421 | 11.28349 | 14945 ft | 322 kts | 19° |
| 2026-05-04 18:11 | 47.81514 | 11.29508 | 14940 ft | 322 kts | 19° |
| 2026-05-04 18:11 | 47.83621 | 11.30663 | 14941 ft | 322 kts | 19° |
| 2026-05-04 18:11 | 47.85723 | 11.31817 | 14941 ft | 322 kts | 19° |
| 2026-05-04 18:12 | 47.87842 | 11.32883 | 14942 ft | 321 kts | 13° |
| 2026-05-04 18:12 | 47.90016 | 11.33408 | 14947 ft | 321 kts | 4° |
| 2026-05-04 18:12 | 47.92247 | 11.33687 | 14941 ft | 322 kts | 2° |
| 2026-05-04 18:12 | 47.94485 | 11.33910 | 14941 ft | 323 kts | 1° |
| 2026-05-04 18:13 | 47.96723 | 11.34116 | 14890 ft | 321 kts | 1° |
| 2026-05-04 18:13 | 47.98952 | 11.34315 | 14330 ft | 325 kts | 1° |
| 2026-05-04 18:13 | 48.03665 | 11.34867 | 13061 ft | 355 kts | 10° |
| 2026-05-04 18:14 | 48.05943 | 11.36286 | 12943 ft | 357 kts | 35° |
| 2026-05-04 18:14 | 48.07635 | 11.38939 | 12938 ft | 353 kts | 60° |
| 2026-05-04 18:14 | 48.08650 | 11.42255 | 12941 ft | 350 kts | 71° |
| 2026-05-04 18:15 | 48.11062 | 11.48167 | 12950 ft | 317 kts | 54° |
| 2026-05-04 18:15 | 48.13613 | 11.53139 | 12948 ft | 290 kts | 54° |
| 2026-05-04 18:15 | 48.14827 | 11.55493 | 12943 ft | 289 kts | 54° |
| 2026-05-04 18:16 | 48.16058 | 11.57881 | 12941 ft | 290 kts | 54° |
| 2026-05-04 18:16 | 48.17288 | 11.60268 | 12941 ft | 290 kts | 54° |
| 2026-05-04 18:16 | 48.18513 | 11.62655 | 12938 ft | 288 kts | 54° |
| 2026-05-04 18:17 | 48.20943 | 11.67409 | 12675 ft | 287 kts | 54° |
| 2026-05-04 18:17 | 48.22163 | 11.69801 | 12194 ft | 290 kts | 54° |
| 2026-05-04 18:17 | 48.24642 | 11.74687 | 11173 ft | 298 kts | 54° |
| 2026-05-04 18:18 | 48.25898 | 11.77171 | 10683 ft | 300 kts | 54° |
| 2026-05-04 18:18 | 48.27163 | 11.79678 | 10196 ft | 302 kts | 54° |
| 2026-05-04 18:18 | 48.28408 | 11.82177 | 9713 ft | 303 kts | 56° |
| 2026-05-04 18:18 | 48.29274 | 11.85023 | 9205 ft | 299 kts | 80° |
| 2026-05-04 18:19 | 48.29400 | 11.90970 | 8948 ft | 270 kts | 94° |
| 2026-05-04 18:19 | 48.29352 | 11.93719 | 8949 ft | 260 kts | 94° |
| 2026-05-04 18:19 | 48.29305 | 11.96417 | 8945 ft | 259 kts | 94° |
| 2026-05-04 18:20 | 48.29257 | 11.99122 | 8944 ft | 259 kts | 94° |
| 2026-05-04 18:20 | 48.29209 | 12.01828 | 8931 ft | 259 kts | 94° |
| 2026-05-04 18:20 | 48.29159 | 12.04528 | 8931 ft | 259 kts | 94° |
| 2026-05-04 18:20 | 48.29110 | 12.07238 | 8945 ft | 259 kts | 94° |
| 2026-05-04 18:21 | 48.29063 | 12.09908 | 8921 ft | 259 kts | 94° |
| 2026-05-04 18:21 | 48.29020 | 12.12620 | 8723 ft | 260 kts | 94° |
| 2026-05-04 18:21 | 48.28972 | 12.15350 | 8257 ft | 264 kts | 94° |
| 2026-05-04 18:21 | 48.28913 | 12.18100 | 7743 ft | 261 kts | 94° |
| 2026-05-04 18:22 | 48.28849 | 12.20785 | 7265 ft | 254 kts | 94° |
| 2026-05-04 18:22 | 48.29073 | 12.23370 | 6786 ft | 251 kts | 70° |
| 2026-05-04 18:22 | 48.30075 | 12.25473 | 6302 ft | 249 kts | 39° |
| 2026-05-04 18:22 | 48.31630 | 12.26513 | 6030 ft | 248 kts | 8° |
| 2026-05-04 18:23 | 48.33353 | 12.26543 | 5983 ft | 248 kts | 356° |
| 2026-05-04 18:23 | 48.35074 | 12.26315 | 5983 ft | 248 kts | 354° |
| 2026-05-04 18:23 | 48.36722 | 12.25611 | 5983 ft | 248 kts | 329° |
| 2026-05-04 18:23 | 48.37837 | 12.23716 | 5989 ft | 244 kts | 291° |
| 2026-05-04 18:24 | 48.37988 | 12.21262 | 6002 ft | 241 kts | 259° |
| 2026-05-04 18:24 | 48.37637 | 12.18790 | 5986 ft | 243 kts | 256° |
| 2026-05-04 18:24 | 48.37280 | 12.16291 | 5994 ft | 247 kts | 258° |
| 2026-05-04 18:24 | 48.37018 | 12.13736 | 5849 ft | 246 kts | 262° |
| 2026-05-04 18:25 | 48.36831 | 12.11195 | 5552 ft | 244 kts | 263° |
| 2026-05-04 18:25 | 48.36645 | 12.08660 | 5186 ft | 244 kts | 262° |
| 2026-05-04 18:25 | 48.36446 | 12.06129 | 4826 ft | 244 kts | 262° |
| 2026-05-04 18:25 | 48.36251 | 12.03596 | 4482 ft | 243 kts | 263° |
| 2026-05-04 18:26 | 48.36061 | 12.01112 | 4158 ft | 233 kts | 263° |
| 2026-05-04 18:26 | 48.35879 | 11.98754 | 3867 ft | 221 kts | 263° |
| 2026-05-04 18:26 | 48.35708 | 11.96521 | 3604 ft | 208 kts | 263° |
| 2026-05-04 18:26 | 48.35549 | 11.94464 | 3356 ft | 188 kts | 263° |
| 2026-05-04 18:27 | 48.35408 | 11.92630 | 3117 ft | 172 kts | 264° |
| 2026-05-04 18:27 | 48.35303 | 11.91259 | 2931 ft | 162 kts | 264° |
| 2026-05-04 18:27 | 48.35179 | 11.89644 | 2726 ft | 152 kts | 264° |
| 2026-05-04 18:27 | 48.35062 | 11.88115 | 2520 ft | 142 kts | 264° |
| 2026-05-04 18:28 | 48.34951 | 11.86656 | 2337 ft | 139 kts | 265° |
| 2026-05-04 18:28 | 48.34842 | 11.85220 | 2147 ft | 138 kts | 264° |
| 2026-05-04 18:28 | 48.34732 | 11.83801 | 1958 ft | 135 kts | 265° |
| 2026-05-04 18:28 | 48.34626 | 11.82391 | 1777 ft | 136 kts | 264° |
| 2026-05-04 18:29 | 48.34520 | 11.80989 | 1591 ft | 135 kts | 264° |
| 2026-05-04 18:29 | 48.34411 | 11.79605 | 1480 ft | 128 kts | 264° |
| 2026-05-04 18:29 | 48.34331 | 11.78505 | 1482 ft | 69 kts | 263° |
| 2026-05-04 18:29 | 48.34309 | 11.78182 | 1481 ft | 12 kts | 269° |
| 2026-05-04 18:30 | 48.34351 | 11.77873 | 1476 ft | 16 kts | 292° |
| 2026-05-04 18:30 | 48.34396 | 11.77715 | 1476 ft | 17 kts | 293° |
| 2026-05-04 18:30 | 48.34443 | 11.77551 | 1478 ft | 7 kts | 293° |
| 2026-05-04 18:31 | 48.34444 | 11.77548 | 1479 ft | 0 kts | 293° |
| 2026-05-04 18:31 | 48.34461 | 11.77493 | 1485 ft | 12 kts | 299° |
| 2026-05-04 18:31 | 48.34535 | 11.77431 | 1480 ft | 14 kts | 349° |
| 2026-05-04 18:31 | 48.34622 | 11.77443 | 1477 ft | 8 kts | 43° |
| 2026-05-04 18:32 | 48.34635 | 11.77521 | 1478 ft | 9 kts | 85° |
| 2026-05-04 18:32 | 48.34642 | 11.77635 | 1488 ft | 13 kts | 84° |
| 2026-05-04 18:32 | 48.34654 | 11.77784 | 1478 ft | 16 kts | 82° |
| 2026-05-04 18:32 | 48.34670 | 11.77964 | 1487 ft | 19 kts | 85° |
| 2026-05-04 18:33 | 48.34684 | 11.78171 | 1480 ft | 21 kts | 84° |
| 2026-05-04 18:33 | 48.34702 | 11.78406 | 1483 ft | 24 kts | 83° |
| 2026-05-04 18:33 | 48.34719 | 11.78620 | 1479 ft | 17 kts | 83° |
| 2026-05-04 18:33 | 48.34734 | 11.78810 | 1478 ft | 20 kts | 83° |
| 2026-05-04 18:34 | 48.34750 | 11.79026 | 1485 ft | 22 kts | 83° |
| 2026-05-04 18:34 | 48.34766 | 11.79243 | 1485 ft | 18 kts | 83° |
| 2026-05-04 18:34 | 48.34779 | 11.79412 | 1488 ft | 9 kts | 83° |
| 2026-05-04 18:34 | 48.34783 | 11.79466 | 1479 ft | 6 kts | 83° |
| 2026-05-04 18:35 | 48.34795 | 11.79537 | 1482 ft | 7 kts | 55° |
| 2026-05-04 18:35 | 48.34846 | 11.79558 | 1484 ft | 9 kts | 356° |
| 2026-05-04 18:35 | 48.34916 | 11.79547 | 1485 ft | 11 kts | 354° |
| 2026-05-04 18:35 | 48.34972 | 11.79555 | 1488 ft | 7 kts | 38° |
| 2026-05-04 18:36 | 48.34991 | 11.79627 | 1482 ft | 9 kts | 72° |
| 2026-05-04 18:36 | 48.35038 | 11.79661 | 1486 ft | 9 kts | 358° |
| 2026-05-04 18:36 | 48.35107 | 11.79651 | 1479 ft | 11 kts | 353° |
| 2026-05-04 18:36 | 48.35182 | 11.79637 | 1486 ft | 11 kts | 353° |
| 2026-05-04 18:37 | 48.35221 | 11.79639 | 1478 ft | 3 kts | 26° |
| 2026-05-04 18:37 | 48.35234 | 11.79667 | 1476 ft | 4 kts | 63° |
| 2026-05-04 18:37 | 48.35241 | 11.79723 | 1479 ft | 7 kts | 84° |
| 2026-05-04 18:37 | 48.35244 | 11.79759 | 1483 ft | 1 kts | 83° |
| 2026-05-04 18:38 | 48.35245 | 11.79770 | 1487 ft | 1 kts | 83° |
| 2026-05-04 18:38 | 48.35245 | 11.79773 | 1488 ft | 0 kts | 83° |